Portada
METAR-TAF:

METAR-TAF

Aeroports :

Kosrae, Micronèsia

latitud: 05-21N, longitud: 162-57E, altitud: 3 m

Observació

L'informe es va fer fa 1 hora i 38 minuts, a les 03:50 UTC
Vent 11 kt del Est
Temperatura 30°C
Humitat 75%
Pressió 1006 hPa
Visibilitat: 16.1 km
Cel ennuvolat a una alçada de 13000 ft
Cel ennuvolat a una alçada de 30000 ft

METAR: PTSA 060350Z 08011KT 10SM BSCT020CB BKN130 BKN300 30/25 A2972 RMK CB W-NW MOV W LAST

Hora: 16:28 (05:28 UTC)

Pronòstic

L'informe es va fer fa 6 hores i 8 minuts, a les 23:20 UTC
Pronòstic vàlid del 06 a les 00 UTC al 06 a les 24 UTC
Vent 8 kt del Est/Nord-Est
Visibilitat: 10 km
Núvols disperses a una alçada de 2000 ft
Cel ennuvolat a una alçada de 13000 ft
xàfecs en les proximitats

TAF: PTSA 052320Z 0600/0624 07008KT P6SM VCSH SCT020 BKN130

Observacions i pronòstics meteorològics de més de 4000 aeroports (METAR i TAF).

Les estacions disponibles són els punts grocs i vermells al mapa.

Posi el ratolí al punt desitjat per veure el nom de l'estació.

Feu clic per veure les observacions i els pronòstics meteorològics.

Per canviar el mapa: feu clic els botons verds amb una creu de color negre per apropar; al botó verd amb un guió per allunyar la imatge; o en les fletxes verdes per a mapes adjacents.


METAR-TAF: